createdAt,value
2019-02-18T00:07:14.088Z,99111.84
2019-02-18T00:12:50.761Z,99111.52
2019-02-18T00:23:13.127Z,99112.42
2019-02-18T00:34:00.566Z,99112.55
2019-02-18T00:49:59.337Z,99101.63
2019-02-18T01:06:10.518Z,99096.73
2019-02-18T01:11:15.722Z,99099.67
2019-02-18T01:16:32.632Z,99098.03
2019-02-18T01:21:37.856Z,99106.81
2019-02-18T01:26:43.081Z,99098.80
2019-02-18T01:37:05.559Z,99105.61
2019-02-18T01:42:10.764Z,99096.73
2019-02-18T01:47:15.960Z,99096.81
2019-02-18T01:58:02.995Z,99085.98
2019-02-18T02:03:08.241Z,99078.41
2019-02-18T02:19:27.963Z,99069.31
2019-02-18T02:24:33.467Z,99067.53
2019-02-18T02:29:58.002Z,99074.11
2019-02-18T02:35:03.190Z,99066.47
2019-02-18T02:40:39.786Z,99058.77
2019-02-18T02:46:04.093Z,99061.16
2019-02-18T02:56:45.124Z,99058.84
2019-02-18T03:01:50.352Z,99053.22
2019-02-18T03:06:57.496Z,99054.33
2019-02-18T03:12:14.816Z,99052.88
2019-02-18T03:22:35.913Z,99044.64
2019-02-18T03:27:53.330Z,99043.00
2019-02-18T03:32:58.839Z,99047.13
2019-02-18T03:38:04.033Z,99041.94
2019-02-18T03:48:45.657Z,99041.28
2019-02-18T03:53:50.868Z,99049.56
2019-02-18T03:58:56.134Z,99054.30
2019-02-18T04:04:20.516Z,99059.64
2019-02-18T04:14:42.937Z,99055.19
2019-02-18T04:19:48.303Z,99055.72
2019-02-18T04:24:53.560Z,99051.95
2019-02-18T04:29:59.047Z,99044.05
2019-02-18T04:35:04.599Z,99046.52
2019-02-18T04:40:10.070Z,99045.66
2019-02-18T04:45:15.326Z,99045.11
2019-02-18T04:50:20.708Z,99045.25
2019-02-18T04:55:26.085Z,99045.94
2019-02-18T05:00:31.605Z,99054.97
2019-02-18T05:05:36.944Z,99048.83
2019-02-18T05:10:42.284Z,99049.33
2019-02-18T05:15:48.297Z,99040.12
2019-02-18T05:20:53.832Z,99046.03
2019-02-18T05:25:59.090Z,99047.63
2019-02-18T05:31:04.380Z,99041.23
2019-02-18T05:36:09.657Z,99037.28
2019-02-18T05:41:15.020Z,99029.03
2019-02-18T05:46:20.405Z,99041.11
2019-02-18T05:51:25.649Z,99038.88
2019-02-18T05:56:37.051Z,99044.16
2019-02-18T06:01:54.259Z,99040.64
2019-02-18T06:06:59.559Z,99039.93
2019-02-18T06:12:04.789Z,99041.23
2019-02-18T06:17:10.017Z,99041.20
2019-02-18T06:22:15.206Z,99046.13
2019-02-18T06:27:20.438Z,99046.80
2019-02-18T06:32:36.995Z,99054.05
2019-02-18T06:42:59.134Z,99053.27
2019-02-18T06:48:15.098Z,99050.04
2019-02-18T06:53:20.565Z,99048.46
2019-02-18T06:59:03.996Z,99050.70
2019-02-18T07:04:28.263Z,99051.26
2019-02-18T07:10:04.071Z,99064.47
2019-02-18T07:20:26.223Z,99061.51
2019-02-18T07:25:50.487Z,99056.33
2019-02-18T07:31:07.758Z,99057.34
2019-02-18T07:36:13.367Z,99045.20
2019-02-18T07:41:37.956Z,99048.08
2019-02-18T07:46:54.607Z,99035.77
2019-02-18T07:51:59.822Z,99035.88
2019-02-18T07:57:05.080Z,99031.28
2019-02-18T08:08:18.167Z,99034.02
2019-02-18T08:13:42.427Z,99034.98
2019-02-18T08:18:47.690Z,99026.55
2019-02-18T08:23:59.761Z,99020.33
2019-02-18T08:29:09.239Z,99029.31
2019-02-18T08:34:14.457Z,99026.83
2019-02-18T08:39:38.856Z,99024.83
2019-02-18T08:50:32.659Z,99024.72
2019-02-18T08:55:57.091Z,99016.19
2019-02-18T09:01:21.317Z,99012.19
2019-02-18T09:06:45.831Z,99008.97
2019-02-18T09:12:03.141Z,98998.29
2019-02-18T09:17:08.509Z,98999.83
2019-02-18T09:22:51.824Z,98994.95
2019-02-18T09:28:08.318Z,98994.53
2019-02-18T09:33:13.701Z,98984.14
2019-02-18T09:55:22.257Z,98969.38
2019-02-18T10:06:16.162Z,98972.78
2019-02-18T10:11:21.360Z,98977.55
2019-02-18T10:16:38.666Z,98976.73
2019-02-18T10:21:43.884Z,98962.30
2019-02-18T10:27:00.314Z,98961.91
2019-02-18T10:32:05.592Z,98958.97
2019-02-18T10:48:24.418Z,98937.09
2019-02-18T10:53:48.685Z,98939.69
2019-02-18T11:04:29.794Z,98927.86
2019-02-18T11:09:46.161Z,98912.32
2019-02-18T11:14:51.383Z,98891.86
2019-02-18T11:20:15.733Z,98894.17
2019-02-18T11:30:49.261Z,98876.24
2019-02-18T11:35:54.540Z,98876.72
2019-02-18T11:40:59.769Z,98883.67
2019-02-18T11:51:22.234Z,98850.69
2019-02-18T12:02:35.857Z,98831.29
2019-02-18T12:13:10.553Z,98818.13
2019-02-18T12:18:15.789Z,98817.20
2019-02-18T12:24:00.899Z,98797.41
2019-02-18T12:29:32.408Z,98791.87
2019-02-18T12:34:49.239Z,98777.80
2019-02-18T12:40:05.929Z,98776.03
2019-02-18T12:45:22.882Z,98748.54
2019-02-18T12:50:28.192Z,98753.20
2019-02-18T12:55:40.653Z,98744.81
2019-02-18T13:06:42.006Z,98737.23
2019-02-18T13:12:19.827Z,98725.23
2019-02-18T13:17:25.426Z,98728.81
2019-02-18T13:22:30.678Z,98712.07
2019-02-18T13:43:44.850Z,98690.89
2019-02-18T13:48:55.532Z,98688.13
2019-02-18T13:54:00.786Z,98674.84
2019-02-18T13:59:17.070Z,98667.89
2019-02-18T14:09:52.491Z,98664.44
2019-02-18T14:20:47.817Z,98646.20
2019-02-18T14:26:17.452Z,98652.75
2019-02-18T14:31:22.742Z,98646.70
2019-02-18T14:36:40.076Z,98646.16
2019-02-18T14:47:22.695Z,98647.69
2019-02-18T14:58:23.191Z,98644.66
2019-02-18T15:09:51.207Z,98641.75
2019-02-18T15:15:08.487Z,98642.81
2019-02-18T15:20:13.734Z,98629.72
2019-02-18T15:25:58.331Z,98617.67
2019-02-18T15:31:22.614Z,98610.34
2019-02-18T15:36:27.840Z,98604.36
2019-02-18T15:52:26.749Z,98591.84
2019-02-18T15:57:32.058Z,98590.44
2019-02-18T16:02:37.330Z,98598.09
2019-02-18T16:08:03.390Z,98591.43
2019-02-18T16:18:38.885Z,98595.36
2019-02-18T16:23:44.495Z,98598.91
2019-02-18T16:28:49.681Z,98593.06
2019-02-18T16:39:43.952Z,98595.47
2019-02-18T16:45:00.809Z,98598.45
2019-02-18T17:01:30.222Z,98605.26
2019-02-18T17:06:47.047Z,98607.45
2019-02-18T17:11:52.543Z,98612.38
2019-02-18T17:16:57.882Z,98612.57
2019-02-18T17:27:39.119Z,98626.50
2019-02-18T17:33:10.289Z,98628.41
2019-02-18T17:38:15.692Z,98622.89
2019-02-18T17:43:32.684Z,98621.58
2019-02-18T17:54:14.318Z,98619.89
2019-02-18T17:59:38.614Z,98628.94
2019-02-18T18:04:55.698Z,98630.48
2019-02-18T18:26:31.858Z,98628.85
2019-02-18T18:31:37.102Z,98624.96
2019-02-18T18:36:54.691Z,98626.88
2019-02-18T18:42:11.433Z,98622.54
2019-02-18T18:47:28.792Z,98628.23
2019-02-18T18:52:34.148Z,98626.26
2019-02-18T18:57:46.489Z,98618.78
2019-02-18T19:03:02.755Z,98615.67
2019-02-18T19:08:27.912Z,98619.00
2019-02-18T19:13:33.177Z,98623.89
2019-02-18T19:18:38.455Z,98620.00
2019-02-18T19:45:12.642Z,98631.06
2019-02-18T19:50:28.760Z,98630.59
2019-02-18T19:55:53.297Z,98634.44
2019-02-18T20:00:58.485Z,98638.59
2019-02-18T20:06:22.743Z,98637.83
2019-02-18T20:11:28.010Z,98636.02
2019-02-18T20:16:52.526Z,98640.70
2019-02-18T20:21:58.070Z,98642.02
2019-02-18T20:27:03.298Z,98641.31
2019-02-18T20:32:19.985Z,98636.77
2019-02-18T20:37:25.195Z,98643.09
2019-02-18T20:42:30.733Z,98639.91
2019-02-18T20:47:55.585Z,98644.77
2019-02-18T20:53:13.161Z,98655.91
2019-02-18T20:58:18.373Z,98653.31
2019-02-18T21:03:23.609Z,98650.22
2019-02-18T21:08:40.796Z,98648.88
2019-02-18T21:13:46.376Z,98648.17
2019-02-18T21:24:40.794Z,98657.36
2019-02-18T21:29:46.340Z,98651.30
2019-02-18T21:34:51.924Z,98647.19
2019-02-18T21:40:16.440Z,98651.37
2019-02-18T21:45:21.692Z,98661.88
2019-02-18T21:50:27.013Z,98659.19
2019-02-18T21:55:32.339Z,98655.69
2019-02-18T22:01:01.894Z,98662.64
2019-02-18T22:06:07.281Z,98655.46
2019-02-18T22:22:05.864Z,98653.42
2019-02-18T22:27:11.175Z,98654.53
2019-02-18T22:32:16.986Z,98653.92
2019-02-18T22:37:22.372Z,98653.45
2019-02-18T22:42:34.951Z,98649.38
2019-02-18T22:47:40.237Z,98655.79
2019-02-18T22:52:45.830Z,98656.42
2019-02-18T22:58:02.911Z,98651.94
2019-02-18T23:08:44.251Z,98656.33
2019-02-18T23:13:49.492Z,98661.50
2019-02-18T23:24:30.941Z,98654.75
2019-02-18T23:29:36.122Z,98648.92
2019-02-18T23:40:11.577Z,98657.61
2019-02-18T23:45:16.753Z,98660.25
2019-02-18T23:55:38.462Z,98665.93
